Time;durP1;ratioP1;P1;durP2;ratioP2;P2;SDS_P1;SDS_P2;PMS_P1;PMS_P2;Temp;Humidity;BMP_temperature;BMP_pressure;BME280_temperature;BME280_humidity;BME280_pressure;Samples;Min_cycle;Max_cycle;Signal;HPM_P1;HPM_P2
2022/06/19 00:00:57;;;;;;;;;;;;;;;14.01;93.87;98265.33;1776983;79;20189;-86
2022/06/19 00:03:25;;;;;;;;;;;;;;;14.01;92.67;98271.58;1768714;80;20282;-86
2022/06/19 00:05:51;;;;;;;;;;;;;;;13.99;94.50;98272.44;1779641;80;21757;-83
2022/06/19 00:08:17;;;;;;;;;;;;;;;13.98;92.88;98265.92;1750418;79;20487;-86
2022/06/19 00:10:43;;;;;;;;;;;;;;;13.96;93.96;98265.42;1766469;80;20191;-85
2022/06/19 00:13:09;;;;;;;;;;;;;;;13.93;93.57;98266.83;1779497;79;20541;-86
2022/06/19 00:15:35;;;;;;;;;;;;;;;13.93;91.27;98270.08;1778833;79;20316;-85
2022/06/19 00:18:00;;;;;;;;;;;;;;;13.87;93.59;98269.37;1767543;79;21045;-85
2022/06/19 00:20:26;;;;;;;;;;;;;;;13.82;94.47;98261.25;1776203;80;21529;-83
2022/06/19 00:22:52;;;;;;;;;;;;;;;13.81;95.18;98264.53;1766195;80;20202;-83
2022/06/19 00:25:18;;;;;;;;;;;;;;;13.78;90.46;98261.05;1757894;80;20609;-85
2022/06/19 00:27:44;;;;;;;;;;;;;;;13.72;89.79;98264.13;1764632;79;20215;-86
2022/06/19 00:30:11;;;;;;;;;;;;;;;13.65;89.70;98260.41;1759278;80;21147;-85
2022/06/19 00:32:37;;;;;;;;;;;;;;;13.59;92.42;98267.56;1767230;80;20191;-85
2022/06/19 00:35:04;;;;;;;;;;;;;;;13.59;91.89;98266.20;1779490;80;20214;-85
2022/06/19 00:37:30;;;;;;;;;;;;;;;13.57;92.86;98261.06;1778332;80;20709;-86
2022/06/19 00:39:56;;;;;;;;;;;;;;;13.53;95.16;98259.48;1778766;80;20301;-85
2022/06/19 00:42:24;;;;;;;;;;;;;;;13.53;94.16;98254.05;1779562;80;21135;-85
2022/06/19 00:44:49;;;;;;;;;;;;;;;13.52;95.24;98259.78;1764688;80;20275;-86
2022/06/19 00:47:22;;;;;;;;;;;;;;;13.47;96.27;98250.31;1761894;79;20309;-85
2022/06/19 00:49:53;;;;;;;;;;;;;;;13.46;94.95;98254.14;1778981;80;20564;-83
2022/06/19 00:52:21;;;;;;;;;;;;;;;13.41;95.19;98250.92;1766697;80;20306;-83
2022/06/19 00:54:50;;;;;;;;;;;;;;;13.38;95.51;98247.44;1751184;80;21655;-83
2022/06/19 00:57:16;;;;;;;;;;;;;;;13.37;93.95;98244.45;1779160;80;20150;-83
2022/06/19 00:59:47;;;;;;;;;;;;;;;13.37;94.49;98242.28;1767404;80;20241;-83
2022/06/19 01:02:14;;;;;;;;;;;;;;;13.35;93.90;98243.14;1727155;80;20152;-83
2022/06/19 01:04:46;;;;;;;;;;;;;;;13.34;93.48;98241.52;1779909;80;20200;-83
2022/06/19 01:07:13;;;;;;;;;;;;;;;13.30;94.29;98244.00;1777642;80;21138;-82
2022/06/19 01:09:39;;;;;;;;;;;;;;;13.26;96.67;98237.53;1746834;80;20326;-82
2022/06/19 01:12:05;;;;;;;;;;;;;;;13.24;95.16;98232.39;1778995;80;20226;-86
2022/06/19 01:14:30;;;;;;;;;;;;;;;13.25;93.56;98236.73;1760588;80;20229;-85
2022/06/19 01:16:56;;;;;;;;;;;;;;;13.25;94.04;98231.84;1746240;80;20266;-85
2022/06/19 01:19:27;;;;;;;;;;;;;;;13.25;91.99;98233.20;1764976;79;21063;-86
2022/06/19 01:22:15;;;;;;;;;;;;;;;13.25;94.07;98227.75;1779980;80;20183;-85
2022/06/19 01:25:12;;;;;;;;;;;;;;;13.23;96.39;98223.94;1750722;79;20159;-86
2022/06/19 01:30:26;;;;;;;;;;;;;;;13.21;96.58;98214.45;1755562;80;20178;-83
2022/06/19 01:32:51;;;;;;;;;;;;;;;13.20;94.84;98216.38;1771679;80;21144;-83
2022/06/19 01:35:18;;;;;;;;;;;;;;;13.19;95.99;98216.11;1779040;80;20199;-82
2022/06/19 01:37:44;;;;;;;;;;;;;;;13.19;95.72;98219.36;1752297;80;20151;-82
2022/06/19 01:40:13;;;;;;;;;;;;;;;13.14;94.87;98207.97;1779345;80;20253;-82
2022/06/19 01:42:39;;;;;;;;;;;;;;;13.11;92.89;98207.20;1779200;80;20573;-83
2022/06/19 01:45:06;;;;;;;;;;;;;;;13.07;92.92;98197.99;1779823;80;21140;-83
2022/06/19 01:47:32;;;;;;;;;;;;;;;13.04;93.47;98198.59;1778122;80;20176;-82
2022/06/19 01:49:57;;;;;;;;;;;;;;;13.02;95.39;98202.16;1779368;80;20632;-82
2022/06/19 01:52:25;;;;;;;;;;;;;;;12.95;95.80;98209.85;1765497;80;20245;-82
2022/06/19 01:54:57;;;;;;;;;;;;;;;12.93;94.47;98205.27;1774528;80;20184;-86
2022/06/19 01:57:23;;;;;;;;;;;;;;;12.91;95.27;98199.31;1770721;79;21100;-83
2022/06/19 01:59:49;;;;;;;;;;;;;;;12.85;94.82;98197.19;1766594;80;20178;-82
2022/06/19 02:02:14;;;;;;;;;;;;;;;12.82;96.16;98198.30;1737628;80;20213;-83
2022/06/19 02:04:40;;;;;;;;;;;;;;;12.81;96.74;98193.41;1777735;80;21802;-82
2022/06/19 02:07:09;;;;;;;;;;;;;;;12.83;96.30;98193.15;1779062;79;20274;-83
2022/06/19 02:09:35;;;;;;;;;;;;;;;12.84;96.04;98183.88;1755526;80;21069;-83
2022/06/19 02:12:01;;;;;;;;;;;;;;;12.76;96.90;98186.69;1767465;80;20219;-82
2022/06/19 02:14:26;;;;;;;;;;;;;;;12.67;97.19;98181.08;1758715;80;20221;-85
2022/06/19 02:16:52;;;;;;;;;;;;;;;12.66;96.58;98175.94;1756114;79;20246;-85
2022/06/19 02:19:18;;;;;;;;;;;;;;;12.64;96.57;98173.48;1776147;80;20242;-83
2022/06/19 02:21:47;;;;;;;;;;;;;;;12.60;96.50;98168.38;1779617;80;20994;-83
2022/06/19 02:24:15;;;;;;;;;;;;;;;12.62;94.99;98177.05;1780052;80;20447;-82
2022/06/19 02:26:41;;;;;;;;;;;;;;;12.60;97.13;98179.25;1777857;80;20460;-82
2022/06/19 02:29:11;;;;;;;;;;;;;;;12.62;97.04;98164.81;1767902;80;20240;-82
2022/06/19 02:31:38;;;;;;;;;;;;;;;12.65;96.85;98162.89;1779187;79;20223;-82
2022/06/19 02:34:06;;;;;;;;;;;;;;;12.66;96.17;98162.34;1767509;80;21029;-83
2022/06/19 02:36:42;;;;;;;;;;;;;;;12.61;97.64;98165.91;1736583;80;20226;-82
2022/06/19 02:39:23;;;;;;;;;;;;;;;12.62;96.18;98166.17;1777832;80;20194;-82
2022/06/19 02:42:10;;;;;;;;;;;;;;;12.55;97.33;98168.42;1767463;80;20194;-82
2022/06/19 02:44:40;;;;;;;;;;;;;;;12.52;96.64;98172.28;1779271;80;20574;-83
2022/06/19 02:47:06;;;;;;;;;;;;;;;12.54;96.14;98169.52;1766566;80;21023;-85
2022/06/19 02:49:33;;;;;;;;;;;;;;;12.52;96.06;98173.09;1779151;80;20234;-85
2022/06/19 02:52:00;;;;;;;;;;;;;;;12.54;95.97;98175.52;1749194;80;20312;-86
2022/06/19 02:54:26;;;;;;;;;;;;;;;12.54;97.24;98168.72;1773194;80;20289;-85
2022/06/19 02:56:52;;;;;;;;;;;;;;;12.60;96.87;98168.93;1746381;79;20176;-85
2022/06/19 02:59:17;;;;;;;;;;;;;;;12.62;96.57;98173.52;1752501;80;21787;-82
2022/06/19 03:01:43;;;;;;;;;;;;;;;12.67;95.24;98172.12;1770375;80;20230;-82
2022/06/19 03:04:18;;;;;;;;;;;;;;;12.74;95.14;98169.86;1773011;79;20217;-83
2022/06/19 03:06:44;;;;;;;;;;;;;;;12.65;97.24;98173.77;1766733;80;20540;-82
2022/06/19 03:09:09;;;;;;;;;;;;;;;12.68;95.69;98178.62;1779932;79;20198;-82
2022/06/19 03:11:35;;;;;;;;;;;;;;;12.67;96.13;98169.40;1779618;80;21053;-82
2022/06/19 03:14:01;;;;;;;;;;;;;;;12.70;95.47;98172.89;1765510;79;20266;-82
2022/06/19 03:16:27;;;;;;;;;;;;;;;12.70;96.18;98170.17;1778825;80;20186;-82
2022/06/19 03:18:52;;;;;;;;;;;;;;;12.67;97.12;98174.28;1781345;80;21922;-85
2022/06/19 03:21:18;;;;;;;;;;;;;;;12.68;96.43;98181.89;1779780;80;20246;-86
2022/06/19 03:23:44;;;;;;;;;;;;;;;12.73;95.59;98177.73;1742315;79;21211;-83
2022/06/19 03:26:10;;;;;;;;;;;;;;;12.77;95.84;98181.51;1773460;80;20239;-82
2022/06/19 03:28:36;;;;;;;;;;;;;;;12.82;95.98;98184.19;1764854;79;20222;-82
2022/06/19 03:31:01;;;;;;;;;;;;;;;12.89;95.15;98187.34;1779932;80;20257;-86
2022/06/19 03:33:27;;;;;;;;;;;;;;;12.91;95.55;98193.31;1779415;80;20171;-85
2022/06/19 03:35:53;;;;;;;;;;;;;;;12.91;95.68;98189.23;1779261;80;21054;-84
2022/06/19 03:38:20;;;;;;;;;;;;;;;12.96;95.34;98182.36;1749344;79;20224;-85
2022/06/19 03:40:45;;;;;;;;;;;;;;;12.99;96.18;98183.16;1767057;80;20136;-85
2022/06/19 03:43:11;;;;;;;;;;;;;;;13.09;95.57;98189.56;1779243;79;21091;-85
2022/06/19 03:45:37;;;;;;;;;;;;;;;13.11;95.37;98184.08;1769687;80;20163;-86
2022/06/19 03:48:03;;;;;;;;;;;;;;;13.21;95.62;98192.14;1766722;79;21053;-85
2022/06/19 03:50:29;;;;;;;;;;;;;;;13.35;95.27;98188.16;1761833;80;20269;-83
2022/06/19 03:52:54;;;;;;;;;;;;;;;13.44;95.45;98188.30;1779416;80;20262;-86
2022/06/19 03:55:20;;;;;;;;;;;;;;;13.55;94.34;98184.32;1779580;80;20689;-86
2022/06/19 03:57:46;;;;;;;;;;;;;;;13.66;94.25;98178.16;1779166;80;20234;-86
2022/06/19 04:00:17;;;;;;;;;;;;;;;13.69;94.45;98167.51;1779460;80;21143;-85
2022/06/19 04:02:43;;;;;;;;;;;;;;;13.86;93.89;98170.25;1779699;79;20195;-86
2022/06/19 04:05:12;;;;;;;;;;;;;;;13.96;92.78;98174.16;1779808;80;20279;-86
2022/06/19 04:07:45;;;;;;;;;;;;;;;13.97;93.88;98173.05;1766229;80;20640;-86
2022/06/19 04:10:11;;;;;;;;;;;;;;;14.19;92.89;98172.42;1771930;80;20482;-86
2022/06/19 04:12:36;;;;;;;;;;;;;;;14.32;92.98;98161.53;1779609;79;21152;-85
2022/06/19 04:15:03;;;;;;;;;;;;;;;14.49;91.76;98162.90;1749633;80;20275;-86
2022/06/19 04:17:29;;;;;;;;;;;;;;;14.61;91.71;98165.40;1749009;80;20549;-85
2022/06/19 04:19:54;;;;;;;;;;;;;;;14.71;91.19;98167.12;1784017;79;20503;-83
2022/06/19 04:22:20;;;;;;;;;;;;;;;14.89;90.60;98168.92;1779764;80;20199;-85
2022/06/19 04:24:46;;;;;;;;;;;;;;;15.04;90.47;98176.00;1779819;80;21021;-84
2022/06/19 04:27:12;;;;;;;;;;;;;;;15.16;89.70;98172.18;1768264;80;20206;-85
2022/06/19 04:29:37;;;;;;;;;;;;;;;15.28;89.75;98174.93;1776150;80;20262;-86
2022/06/19 04:32:04;;;;;;;;;;;;;;;15.42;89.40;98170.26;1766989;80;20301;-85
2022/06/19 04:34:30;;;;;;;;;;;;;;;15.58;89.08;98172.09;1779538;80;20443;-86
2022/06/19 04:36:55;;;;;;;;;;;;;;;15.67;89.13;98166.98;1779158;79;21050;-85
2022/06/19 04:39:21;;;;;;;;;;;;;;;15.87;88.49;98168.97;1779509;80;20586;-85
2022/06/19 04:41:47;;;;;;;;;;;;;;;15.91;87.80;98167.24;1776291;80;20222;-86
2022/06/19 04:44:15;;;;;;;;;;;;;;;16.08;87.33;98163.26;1769328;80;20151;-83
2022/06/19 04:46:41;;;;;;;;;;;;;;;16.17;86.67;98160.02;1779179;79;20163;-83
2022/06/19 04:49:06;;;;;;;;;;;;;;;16.35;86.24;98156.25;1780023;80;21083;-83
2022/06/19 04:51:32;;;;;;;;;;;;;;;16.48;86.25;98151.80;1779607;80;20274;-83
2022/06/19 04:53:58;;;;;;;;;;;;;;;16.67;85.97;98152.14;1780062;80;20226;-82
2022/06/19 04:56:24;;;;;;;;;;;;;;;16.87;86.03;98151.59;1748784;79;20194;-83
2022/06/19 04:58:49;;;;;;;;;;;;;;;17.06;85.02;98146.64;1776838;79;20202;-82
2022/06/19 05:01:22;;;;;;;;;;;;;;;17.28;85.27;98146.30;1777212;79;21863;-83
2022/06/19 05:03:47;;;;;;;;;;;;;;;17.38;83.28;98150.09;1725774;81;20181;-83
2022/06/19 05:06:13;;;;;;;;;;;;;;;17.62;83.59;98151.80;1738989;80;20238;-83
2022/06/19 05:08:39;;;;;;;;;;;;;;;17.76;83.42;98151.08;1779687;80;20177;-83
2022/06/19 05:11:05;;;;;;;;;;;;;;;17.99;83.70;98147.59;1779896;80;20282;-82
2022/06/19 05:13:30;;;;;;;;;;;;;;;18.19;83.03;98143.36;1779425;80;21069;-83
2022/06/19 05:16:09;;;;;;;;;;;;;;;18.44;82.72;98154.02;1748473;80;20344;-83
2022/06/19 05:18:34;;;;;;;;;;;;;;;18.52;80.77;98144.95;1752203;79;20186;-83
2022/06/19 05:21:04;;;;;;;;;;;;;;;18.78;82.15;98142.13;1779209;79;21174;-83
2022/06/19 05:23:31;;;;;;;;;;;;;;;18.91;81.77;98135.38;1760126;79;20227;-86
2022/06/19 05:26:08;;;;;;;;;;;;;;;19.13;80.99;98134.50;1750146;80;21050;-83
2022/06/19 05:28:34;;;;;;;;;;;;;;;19.33;79.05;98130.19;1779571;79;20164;-83
2022/06/19 05:31:00;;;;;;;;;;;;;;;19.49;78.96;98121.36;1781376;80;21494;-83
2022/06/19 05:33:26;;;;;;;;;;;;;;;19.69;78.96;98114.48;1765133;79;20847;-83
2022/06/19 05:35:52;;;;;;;;;;;;;;;19.92;78.38;98116.30;1779322;80;20152;-83
2022/06/19 05:38:18;;;;;;;;;;;;;;;20.15;78.22;98109.83;1779804;80;21132;-83
2022/06/19 05:40:43;;;;;;;;;;;;;;;20.38;78.45;98108.84;1779985;80;20190;-83
2022/06/19 05:43:09;;;;;;;;;;;;;;;20.60;78.37;98104.91;1779792;80;20242;-83
2022/06/19 05:45:35;;;;;;;;;;;;;;;20.79;75.92;98101.00;1780274;79;21425;-83
2022/06/19 05:48:01;;;;;;;;;;;;;;;20.92;75.06;98105.91;1763820;80;20243;-83
2022/06/19 05:50:26;;;;;;;;;;;;;;;21.11;74.89;98111.65;1780244;80;21047;-83
2022/06/19 05:52:52;;;;;;;;;;;;;;;21.34;72.65;98108.41;1779546;80;20258;-83
2022/06/19 05:55:18;;;;;;;;;;;;;;;21.56;72.96;98101.58;1779549;80;20297;-83
2022/06/19 05:57:44;;;;;;;;;;;;;;;21.73;71.07;98096.36;1764381;79;21133;-83
2022/06/19 06:00:10;;;;;;;;;;;;;;;21.79;69.54;98093.55;1779936;80;20242;-83
2022/06/19 06:02:36;;;;;;;;;;;;;;;21.96;69.88;98104.27;1767553;80;21079;-83
2022/06/19 06:05:03;;;;;;;;;;;;;;;22.16;69.26;98098.36;1779915;80;20219;-84
2022/06/19 06:07:29;;;;;;;;;;;;;;;22.39;68.56;98091.63;1765557;80;20439;-84
2022/06/19 06:09:54;;;;;;;;;;;;;;;22.48;68.00;98086.77;1737949;80;20269;-84
2022/06/19 06:12:20;;;;;;;;;;;;;;;22.62;66.16;98084.92;1763575;79;20751;-83
2022/06/19 06:14:46;;;;;;;;;;;;;;;22.68;66.31;98084.88;1765857;79;21045;-84
2022/06/19 06:17:12;;;;;;;;;;;;;;;22.86;63.43;98075.66;1756288;80;20224;-84
2022/06/19 06:19:37;;;;;;;;;;;;;;;23.12;64.82;98075.07;1767748;80;20249;-84
2022/06/19 06:22:04;;;;;;;;;;;;;;;23.22;63.83;98063.45;1763049;79;20190;-84
2022/06/19 06:24:29;;;;;;;;;;;;;;;23.31;61.64;98061.27;1780138;80;20183;-84
2022/06/19 06:26:55;;;;;;;;;;;;;;;23.52;61.01;98054.82;1779219;79;21111;-84
2022/06/19 06:29:21;;;;;;;;;;;;;;;23.71;62.19;98051.85;1746109;80;20247;-83
2022/06/19 06:31:47;;;;;;;;;;;;;;;23.87;61.54;98049.22;1753421;79;20215;-84
2022/06/19 06:34:13;;;;;;;;;;;;;;;23.97;59.10;98045.05;1779861;80;20214;-84
2022/06/19 06:36:39;;;;;;;;;;;;;;;24.02;59.33;98045.34;1779107;79;20273;-84
2022/06/19 06:39:04;;;;;;;;;;;;;;;24.09;59.07;98045.44;1751220;80;21208;-84
2022/06/19 06:41:30;;;;;;;;;;;;;;;24.25;58.86;98045.33;1774510;79;20223;-83
2022/06/19 06:43:56;;;;;;;;;;;;;;;24.43;57.88;98040.33;1779957;80;20250;-86
2022/06/19 06:46:23;;;;;;;;;;;;;;;24.50;56.44;98042.42;1748314;80;20277;-87
2022/06/19 06:48:50;;;;;;;;;;;;;;;24.56;56.81;98040.16;1755186;79;20175;-84
2022/06/19 06:51:18;;;;;;;;;;;;;;;24.65;57.42;98044.26;1768837;80;21008;-84
2022/06/19 06:53:44;;;;;;;;;;;;;;;24.87;56.22;98034.90;1751843;80;20288;-84
2022/06/19 06:56:09;;;;;;;;;;;;;;;24.93;55.57;98033.38;1768450;80;20214;-84
2022/06/19 06:58:36;;;;;;;;;;;;;;;25.06;53.42;98031.23;1771817;80;20238;-84
2022/06/19 07:01:10;;;;;;;;;;;;;;;25.07;53.55;98024.52;1779751;80;20240;-84
2022/06/19 07:03:36;;;;;;;;;;;;;;;25.16;53.01;98023.64;1779609;80;21819;-84
2022/06/19 07:06:02;;;;;;;;;;;;;;;25.24;52.55;98015.05;1779559;80;20420;-84
2022/06/19 07:08:28;;;;;;;;;;;;;;;25.36;52.27;98011.81;1764553;79;20273;-84
2022/06/19 07:10:54;;;;;;;;;;;;;;;25.40;52.71;98002.38;1779952;80;20562;-84
2022/06/19 07:13:20;;;;;;;;;;;;;;;25.47;52.97;98003.05;1765369;79;20206;-87
2022/06/19 07:15:46;;;;;;;;;;;;;;;25.62;52.95;97992.30;1721254;82;21890;-86
2022/06/19 07:18:12;;;;;;;;;;;;;;;25.68;53.75;97990.00;1747788;80;20202;-86
2022/06/19 07:20:38;;;;;;;;;;;;;;;25.82;52.42;97982.66;1778880;80;20187;-84
2022/06/19 07:23:04;;;;;;;;;;;;;;;26.04;52.66;97975.31;1778142;79;20230;-84
2022/06/19 07:25:30;;;;;;;;;;;;;;;26.25;52.91;97966.38;1759402;79;20197;-84
2022/06/19 07:27:56;;;;;;;;;;;;;;;26.37;52.27;97968.05;1759392;80;21013;-84
2022/06/19 07:30:22;;;;;;;;;;;;;;;26.56;51.20;97966.42;1780138;80;20222;-84
2022/06/19 07:32:48;;;;;;;;;;;;;;;26.67;51.50;97963.74;1779431;79;20218;-84
2022/06/19 07:35:14;;;;;;;;;;;;;;;26.78;51.16;97959.03;1779493;80;20133;-84
2022/06/19 07:37:40;;;;;;;;;;;;;;;26.97;51.12;97953.77;1779079;80;20179;-84
2022/06/19 07:40:06;;;;;;;;;;;;;;;27.30;51.40;97945.00;1780246;80;21045;-84
2022/06/19 07:42:32;;;;;;;;;;;;;;;27.62;51.71;97940.33;1765085;80;20168;-87
2022/06/19 07:44:58;;;;;;;;;;;;;;;27.75;51.26;97937.98;1753151;80;20261;-88
2022/06/19 07:50:09;;;;;;;;;;;;;;;28.37;50.95;97941.23;1779810;80;20207;-88
2022/06/19 07:52:38;;;;;;;;;;;;;;;28.38;49.83;97940.64;1776533;79;20977;-85
2022/06/19 07:55:04;;;;;;;;;;;;;;;28.42;51.00;97940.63;1754415;80;20168;-88
2022/06/19 07:57:30;;;;;;;;;;;;;;;28.61;49.75;97936.80;1766617;80;20712;-87
2022/06/19 07:59:56;;;;;;;;;;;;;;;29.19;49.70;97932.66;1779919;80;20171;-87
2022/06/19 08:02:24;;;;;;;;;;;;;;;29.84;47.47;97935.13;1779830;80;20230;-87
2022/06/19 08:04:49;;;;;;;;;;;;;;;29.96;43.51;97934.03;1766343;80;21194;-88
2022/06/19 08:07:15;;;;;;;;;;;;;;;30.25;44.25;97929.05;1761146;80;20334;-89
2022/06/19 08:09:41;;;;;;;;;;;;;;;30.83;44.46;97930.69;1769250;80;20307;-87
2022/06/19 08:12:07;;;;;;;;;;;;;;;31.33;45.27;97937.11;1750271;80;20225;-85
2022/06/19 08:14:33;;;;;;;;;;;;;;;31.02;39.22;97932.06;1775003;79;20157;-85
2022/06/19 08:16:58;;;;;;;;;;;;;;;31.70;42.87;97932.80;1779278;80;21039;-85
2022/06/19 08:19:24;;;;;;;;;;;;;;;32.10;41.22;97931.59;1773883;80;20301;-88
2022/06/19 08:21:50;;;;;;;;;;;;;;;31.65;41.01;97934.66;1741927;80;20307;-85
2022/06/19 08:24:17;;;;;;;;;;;;;;;32.08;39.21;97938.25;1750255;80;20439;-86
2022/06/19 08:26:43;;;;;;;;;;;;;;;32.82;41.69;97931.96;1779579;79;20195;-85
2022/06/19 08:29:09;;;;;;;;;;;;;;;33.25;39.20;97940.95;1751038;80;21088;-85
2022/06/19 08:31:35;;;;;;;;;;;;;;;33.49;36.04;97936.64;1752442;79;20988;-86
2022/06/19 08:34:00;;;;;;;;;;;;;;;32.98;35.78;97940.28;1774326;80;20730;-86
2022/06/19 08:36:26;;;;;;;;;;;;;;;33.64;36.56;97948.54;1779670;80;20218;-85
2022/06/19 08:38:55;;;;;;;;;;;;;;;33.81;33.26;97940.14;1754231;80;20257;-86
2022/06/19 08:41:25;;;;;;;;;;;;;;;34.16;35.85;97941.34;1777878;80;21182;-85
2022/06/19 08:43:54;;;;;;;;;;;;;;;34.70;34.34;97935.17;1779664;80;20288;-85
2022/06/19 08:46:48;;;;;;;;;;;;;;;35.19;35.18;97937.22;1778109;80;20505;-87
2022/06/19 08:49:24;;;;;;;;;;;;;;;35.38;30.66;97928.44;1747678;80;20801;-89
2022/06/19 08:52:13;;;;;;;;;;;;;;;35.24;32.24;97938.09;1753998;79;20184;-86
2022/06/19 08:54:49;;;;;;;;;;;;;;;35.56;29.07;97925.11;1779665;80;22002;-85
2022/06/19 08:57:27;;;;;;;;;;;;;;;35.63;28.17;97930.50;1778938;80;20223;-86
2022/06/19 09:00:16;;;;;;;;;;;;;;;35.39;29.23;97931.45;1779748;80;20211;-85
2022/06/19 09:02:51;;;;;;;;;;;;;;;35.94;27.85;97932.17;1779700;79;20599;-86
2022/06/19 09:05:36;;;;;;;;;;;;;;;35.83;29.67;97931.09;1779750;80;20216;-86
2022/06/19 09:08:11;;;;;;;;;;;;;;;36.34;27.87;97927.45;1779012;80;21907;-86
2022/06/19 09:10:58;;;;;;;;;;;;;;;36.80;28.11;97923.66;1751386;80;20180;-86
2022/06/19 09:13:43;;;;;;;;;;;;;;;36.81;26.94;97928.84;1777891;80;20171;-86
2022/06/19 09:16:31;;;;;;;;;;;;;;;37.23;27.58;97931.38;1773589;79;20624;-86
2022/06/19 09:19:18;;;;;;;;;;;;;;;37.48;25.34;97936.11;1778985;79;20191;-85
2022/06/19 09:22:22;;;;;;;;;;;;;;;37.00;26.47;97936.84;1746094;80;21046;-86
2022/06/19 09:25:04;;;;;;;;;;;;;;;37.27;25.12;97931.41;1778495;80;20366;-86
2022/06/19 09:27:33;;;;;;;;;;;;;;;37.27;27.47;97926.39;1767393;79;20219;-86
2022/06/19 09:30:04;;;;;;;;;;;;;;;37.61;26.31;97924.72;1779417;80;20513;-86
2022/06/19 09:32:39;;;;;;;;;;;;;;;38.24;26.45;97919.18;1768365;80;20644;-86
2022/06/19 09:35:12;;;;;;;;;;;;;;;38.84;23.17;97918.00;1779935;80;21140;-86
2022/06/19 09:37:57;;;;;;;;;;;;;;;38.82;23.98;97913.45;1775620;79;20558;-86
2022/06/19 09:40:26;;;;;;;;;;;;;;;38.80;21.68;97899.59;1739877;80;20463;-87
2022/06/19 09:43:07;;;;;;;;;;;;;;;38.74;21.08;97902.28;1772175;79;20197;-86
2022/06/19 09:45:36;;;;;;;;;;;;;;;38.97;21.54;97907.94;1763316;80;20140;-89
2022/06/19 09:48:18;;;;;;;;;;;;;;;38.96;19.31;97898.48;1743282;81;21075;-90
2022/06/19 09:50:52;;;;;;;;;;;;;;;38.56;20.14;97897.37;1732411;82;20237;-89
2022/06/19 09:53:34;;;;;;;;;;;;;;;38.78;19.97;97894.41;1749681;79;20242;-90
2022/06/19 09:56:07;;;;;;;;;;;;;;;38.78;21.82;97885.91;1771129;80;20754;-89
2022/06/19 09:58:35;;;;;;;;;;;;;;;39.51;18.56;97877.14;1743786;80;20225;-86
2022/06/19 10:01:01;;;;;;;;;;;;;;;39.38;18.58;97880.16;1771633;79;21053;-86
2022/06/19 10:03:38;;;;;;;;;;;;;;;39.71;17.93;97875.34;1779561;79;20723;-86
2022/06/19 10:06:30;;;;;;;;;;;;;;;39.81;17.86;97875.30;1747983;80;20841;-86
2022/06/19 10:08:59;;;;;;;;;;;;;;;39.70;17.54;97870.94;1752850;80;20199;-86
2022/06/19 10:11:27;;;;;;;;;;;;;;;39.71;17.50;97861.16;1740062;80;20237;-89
2022/06/19 10:14:00;;;;;;;;;;;;;;;39.43;18.73;97863.31;1752768;80;21013;-89
2022/06/19 10:16:44;;;;;;;;;;;;;;;39.99;18.43;97870.94;1745944;80;20225;-90
2022/06/19 10:19:25;;;;;;;;;;;;;;;40.21;18.49;97867.22;1777826;79;20200;-90
2022/06/19 10:22:16;;;;;;;;;;;;;;;40.55;17.79;97863.68;1779710;80;20231;-90
2022/06/19 10:25:07;;;;;;;;;;;;;;;40.89;18.03;97861.52;1780052;80;20137;-90
2022/06/19 10:27:45;;;;;;;;;;;;;;;40.63;17.21;97859.20;1779245;79;20943;-90
2022/06/19 10:30:14;;;;;;;;;;;;;;;41.01;16.52;97854.75;1779113;80;20144;-90
2022/06/19 10:33:05;;;;;;;;;;;;;;;40.85;16.93;97854.56;1779730;79;20187;-89
2022/06/19 10:35:34;;;;;;;;;;;;;;;40.81;17.32;97856.19;1779750;80;20212;-86
2022/06/19 10:38:20;;;;;;;;;;;;;;;41.15;16.22;97859.66;1757114;80;20276;-86
2022/06/19 10:40:55;;;;;;;;;;;;;;;40.97;16.78;97859.86;1773129;80;21921;-86
2022/06/19 10:43:52;;;;;;;;;;;;;;;40.67;16.75;97850.48;1746477;79;20202;-87
2022/06/19 10:46:17;;;;;;;;;;;;;;;40.91;16.57;97837.03;1776172;80;20203;-86
2022/06/19 10:49:04;;;;;;;;;;;;;;;41.05;16.63;97844.00;1756695;79;20180;-86
2022/06/19 10:51:39;;;;;;;;;;;;;;;40.74;16.42;97838.75;1774200;79;20201;-86
2022/06/19 10:54:24;;;;;;;;;;;;;;;40.95;16.29;97839.69;1778807;80;21840;-87
2022/06/19 10:56:53;;;;;;;;;;;;;;;40.42;16.35;97822.74;1754025;79;20223;-86
2022/06/19 10:59:21;;;;;;;;;;;;;;;40.82;16.07;97827.94;1779092;79;20274;-86
2022/06/19 11:04:37;;;;;;;;;;;;;;;41.05;17.66;97816.38;1779320;80;20160;-86
2022/06/19 11:07:12;;;;;;;;;;;;;;;41.53;15.95;97822.45;1770480;80;21882;-86
2022/06/19 11:09:41;;;;;;;;;;;;;;;41.39;16.83;97822.00;1748702;79;20234;-91
2022/06/19 11:12:13;;;;;;;;;;;;;;;41.92;16.80;97824.48;1781475;80;20565;-89
2022/06/19 11:14:45;;;;;;;;;;;;;;;42.43;15.95;97819.59;1742390;80;20654;-90
2022/06/19 11:17:16;;;;;;;;;;;;;;;42.02;16.45;97813.10;1768182;80;20275;-89
2022/06/19 11:19:46;;;;;;;;;;;;;;;42.22;16.66;97820.91;1775335;79;21239;-89
2022/06/19 11:22:38;;;;;;;;;;;;;;;41.93;15.09;97811.17;1756608;80;20240;-90
2022/06/19 11:25:20;;;;;;;;;;;;;;;41.71;15.42;97805.84;1779628;80;20270;-90
2022/06/19 11:28:01;;;;;;;;;;;;;;;41.69;16.12;97814.17;1779210;79;20243;-90
2022/06/19 11:30:33;;;;;;;;;;;;;;;41.85;15.66;97800.72;1755285;80;20249;-89
2022/06/19 11:33:00;;;;;;;;;;;;;;;41.77;16.24;97793.88;1763233;80;21872;-90
2022/06/19 11:35:30;;;;;;;;;;;;;;;41.90;15.95;97792.27;1761811;80;20243;-86
2022/06/19 11:37:56;;;;;;;;;;;;;;;41.74;15.84;97790.62;1752560;80;21499;-90
2022/06/19 11:40:31;;;;;;;;;;;;;;;41.97;15.75;97791.06;1779995;80;20196;-89
2022/06/19 11:42:58;;;;;;;;;;;;;;;41.94;15.96;97787.13;1779968;79;20140;-89
2022/06/19 11:45:31;;;;;;;;;;;;;;;42.38;16.10;97785.36;1779251;80;21121;-88
2022/06/19 11:48:00;;;;;;;;;;;;;;;42.88;14.79;97792.25;1758099;80;20194;-88
2022/06/19 11:50:38;;;;;;;;;;;;;;;42.22;16.13;97791.80;1737730;80;20135;-90
2022/06/19 11:53:10;;;;;;;;;;;;;;;42.59;15.98;97788.35;1763144;80;20184;-89
2022/06/19 11:55:42;;;;;;;;;;;;;;;42.88;15.46;97791.60;1779271;80;20172;-86
2022/06/19 11:58:21;;;;;;;;;;;;;;;42.36;16.39;97783.66;1779022;79;21019;-87
2022/06/19 12:01:08;;;;;;;;;;;;;;;42.66;15.90;97786.48;1749756;80;20187;-86
2022/06/19 12:03:48;;;;;;;;;;;;;;;43.11;16.53;97784.72;1778112;80;21009;-86
2022/06/19 12:06:16;;;;;;;;;;;;;;;43.41;15.07;97776.02;1748342;80;20314;-86
2022/06/19 12:08:55;;;;;;;;;;;;;;;43.29;14.29;97773.71;1757119;80;20250;-87
2022/06/19 12:11:39;;;;;;;;;;;;;;;42.16;15.04;97778.78;1777805;80;21060;-86
2022/06/19 12:14:09;;;;;;;;;;;;;;;42.44;15.93;97779.88;1755304;80;20703;-87
2022/06/19 12:16:35;;;;;;;;;;;;;;;42.99;14.77;97773.88;1770998;79;20246;-90
2022/06/19 12:19:27;;;;;;;;;;;;;;;43.01;14.42;97760.67;1779557;80;20210;-88
2022/06/19 12:21:56;;;;;;;;;;;;;;;42.88;14.31;97769.45;1749922;79;20173;-89
2022/06/19 12:24:31;;;;;;;;;;;;;;;42.91;14.11;97761.34;1778910;80;21735;-86
2022/06/19 12:26:57;;;;;;;;;;;;;;;42.41;14.44;97752.42;1776074;79;20239;-86
2022/06/19 12:29:29;;;;;;;;;;;;;;;42.95;13.39;97756.99;1750394;80;20198;-87
2022/06/19 12:31:58;;;;;;;;;;;;;;;42.01;14.15;97756.70;1779791;80;20250;-86
2022/06/19 12:34:30;;;;;;;;;;;;;;;41.95;14.44;97762.31;1778853;80;20247;-86
2022/06/19 12:36:58;;;;;;;;;;;;;;;42.06;14.75;97751.73;1778972;79;21066;-86
2022/06/19 12:39:26;;;;;;;;;;;;;;;42.74;13.58;97749.80;1779649;80;20235;-86
2022/06/19 12:42:18;;;;;;;;;;;;;;;41.95;14.68;97749.52;1767766;80;20259;-86
2022/06/19 12:45:04;;;;;;;;;;;;;;;41.86;15.35;97729.75;1778759;80;20180;-86
2022/06/19 12:47:54;;;;;;;;;;;;;;;42.15;14.35;97732.47;1778818;80;20219;-87
2022/06/19 12:50:39;;;;;;;;;;;;;;;41.54;14.66;97734.48;1777806;80;21631;-86
2022/06/19 12:53:27;;;;;;;;;;;;;;;41.91;14.58;97735.52;1779458;79;20160;-86
2022/06/19 12:56:05;;;;;;;;;;;;;;;41.59;14.78;97736.61;1771672;80;20141;-87
2022/06/19 12:58:41;;;;;;;;;;;;;;;41.62;15.28;97723.62;1778351;79;20175;-86
2022/06/19 13:01:16;;;;;;;;;;;;;;;41.69;15.08;97726.66;1779589;80;20333;-86
2022/06/19 13:03:46;;;;;;;;;;;;;;;41.54;15.38;97726.73;1779053;79;21855;-86
2022/06/19 13:06:18;;;;;;;;;;;;;;;41.56;15.60;97719.91;1779414;80;20203;-86
2022/06/19 13:08:51;;;;;;;;;;;;;;;42.13;14.66;97705.16;1778318;80;20187;-86
2022/06/19 13:11:54;;;;;;;;;;;;;;;41.69;15.04;97709.59;1717012;81;20687;-86